createdAt,value
2019-01-12T00:00:31.450Z,101012.00
2019-01-12T00:03:01.972Z,101015.00
2019-01-12T00:05:37.430Z,101014.00
2019-01-12T00:08:08.090Z,101028.00
2019-01-12T00:10:38.345Z,101019.00
2019-01-12T00:13:08.704Z,101017.00
2019-01-12T00:15:38.956Z,101017.00
2019-01-12T00:18:09.264Z,101026.00
2019-01-12T00:20:39.574Z,101019.00
2019-01-12T00:23:10.063Z,101006.00
2019-01-12T00:25:40.688Z,101013.00
2019-01-12T00:28:10.891Z,101005.00
2019-01-12T00:30:41.160Z,101003.00
2019-01-12T00:33:11.738Z,101002.00
2019-01-12T00:35:42.274Z,101003.00
2019-01-12T00:38:12.557Z,101001.00
2019-01-12T00:40:44.448Z,101006.00
2019-01-12T00:43:14.701Z,101001.00
2019-01-12T00:45:45.126Z,101003.00
2019-01-12T00:48:15.678Z,101003.00
2019-01-12T00:50:46.179Z,101000.00
2019-01-12T00:53:16.791Z,100996.00
2019-01-12T00:55:47.255Z,100995.00
2019-01-12T00:58:19.357Z,100988.00
2019-01-12T01:00:49.737Z,100995.00
2019-01-12T01:03:22.730Z,100995.00
2019-01-12T01:05:53.092Z,100990.00
2019-01-12T01:08:23.424Z,100987.00
2019-01-12T01:10:53.913Z,100995.00
2019-01-12T01:13:24.540Z,100994.00
2019-01-12T01:15:54.912Z,100986.00
2019-01-12T01:18:25.242Z,100998.00
2019-01-12T01:20:55.589Z,100987.00
2019-01-12T01:23:25.994Z,100989.00
2019-01-12T01:25:56.316Z,100998.00
2019-01-12T01:28:26.529Z,100986.00
2019-01-12T01:30:56.947Z,101001.00
2019-01-12T01:33:27.992Z,101005.00
2019-01-12T01:35:58.312Z,101000.00
2019-01-12T01:38:28.520Z,100995.00
2019-01-12T01:40:58.771Z,101000.00
2019-01-12T01:43:29.014Z,101000.00
2019-01-12T01:45:59.446Z,101000.00
2019-01-12T01:48:29.914Z,100992.00
2019-01-12T01:51:00.178Z,100991.00
2019-01-12T01:53:30.490Z,101002.00
2019-01-12T01:56:00.791Z,101007.00
2019-01-12T01:58:31.186Z,101000.00
2019-01-12T02:01:01.475Z,100998.00
2019-01-12T02:03:31.854Z,101002.00
2019-01-12T02:06:02.154Z,100999.00
2019-01-12T02:08:32.526Z,101001.00
2019-01-12T02:11:02.816Z,101008.00
2019-01-12T02:13:33.150Z,101000.00
2019-01-12T02:16:03.463Z,101003.00
2019-01-12T02:18:33.796Z,101009.00
2019-01-12T02:21:04.066Z,101009.00
2019-01-12T02:23:34.449Z,101015.00
2019-01-12T02:26:04.772Z,100997.00
2019-01-12T02:28:35.130Z,100998.00
2019-01-12T02:31:06.542Z,101004.00
2019-01-12T02:33:36.852Z,101000.00
2019-01-12T02:36:07.086Z,100997.00
2019-01-12T02:38:37.414Z,100994.00
2019-01-12T02:41:07.737Z,100994.00
2019-01-12T02:43:38.095Z,100991.00
2019-01-12T02:46:08.382Z,100983.00
2019-01-12T02:48:38.849Z,100991.00
2019-01-12T02:51:09.129Z,101003.00
2019-01-12T02:53:39.493Z,100999.00
2019-01-12T02:56:09.827Z,100993.00
2019-01-12T02:58:40.190Z,100989.00
2019-01-12T03:01:10.589Z,100985.00
2019-01-12T03:03:40.852Z,100985.00
2019-01-12T03:06:11.191Z,100985.00
2019-01-12T03:08:41.492Z,100976.00
2019-01-12T03:11:11.796Z,100976.00
2019-01-12T03:13:42.102Z,100973.00
2019-01-12T03:16:12.602Z,100979.00
2019-01-12T03:18:42.819Z,100973.00
2019-01-12T03:21:13.110Z,100982.00
2019-01-12T03:23:43.472Z,100978.00
2019-01-12T03:26:13.820Z,100974.00
2019-01-12T03:28:44.143Z,100967.00
2019-01-12T03:31:14.327Z,100974.00
2019-01-12T03:33:44.666Z,100963.00
2019-01-12T03:36:14.957Z,100963.00
2019-01-12T03:38:45.307Z,100968.00
2019-01-12T03:41:15.555Z,100964.00
2019-01-12T03:43:45.847Z,100963.00
2019-01-12T03:46:16.096Z,100961.00
2019-01-12T03:48:46.720Z,100955.00
2019-01-12T03:51:17.003Z,100957.00
2019-01-12T03:53:47.347Z,100955.00
2019-01-12T03:56:17.603Z,100946.00
2019-01-12T03:58:47.802Z,100951.00
2019-01-12T04:01:18.033Z,100940.00
2019-01-12T04:03:48.168Z,100929.00
2019-01-12T04:06:18.958Z,100937.00
2019-01-12T04:08:49.270Z,100927.00
2019-01-12T04:11:19.516Z,100927.00
2019-01-12T04:13:49.774Z,100933.00
2019-01-12T04:16:19.963Z,100930.00
2019-01-12T04:18:50.153Z,100935.00
2019-01-12T04:21:20.468Z,100925.00
2019-01-12T04:23:50.830Z,100927.00
2019-01-12T04:26:21.258Z,100933.00
2019-01-12T04:28:51.713Z,100924.00
2019-01-12T04:31:21.921Z,100926.00
2019-01-12T04:33:52.251Z,100924.00
2019-01-12T04:36:22.651Z,100929.00
2019-01-12T04:38:52.983Z,100920.00
2019-01-12T04:41:23.216Z,100917.00
2019-01-12T04:43:53.474Z,100922.00
2019-01-12T04:46:23.755Z,100917.00
2019-01-12T04:48:54.066Z,100920.00
2019-01-12T04:51:24.468Z,100912.00
2019-01-12T04:53:54.774Z,100918.00
2019-01-12T04:56:25.089Z,100906.00
2019-01-12T04:58:55.437Z,100899.00
2019-01-12T05:01:25.766Z,100908.00
2019-01-12T05:03:56.424Z,100906.00
2019-01-12T05:06:26.879Z,100894.00
2019-01-12T05:08:57.290Z,100903.00
2019-01-12T05:11:27.617Z,100898.00
2019-01-12T05:13:57.873Z,100888.00
2019-01-12T05:16:28.082Z,100897.00
2019-01-12T05:18:58.426Z,100899.00
2019-01-12T05:21:28.776Z,100888.00
2019-01-12T05:23:59.022Z,100879.00
2019-01-12T05:26:29.478Z,100891.00
2019-01-12T05:28:59.821Z,100901.00
2019-01-12T05:31:30.220Z,100886.00
2019-01-12T05:34:03.083Z,100896.00
2019-01-12T05:36:33.289Z,100890.00
2019-01-12T05:39:06.033Z,100893.00
2019-01-12T05:41:38.023Z,100898.00
2019-01-12T05:44:08.319Z,100895.00
2019-01-12T05:46:38.785Z,100890.00
2019-01-12T05:49:09.007Z,100886.00
2019-01-12T05:51:39.308Z,100887.00
2019-01-12T05:54:09.661Z,100890.00
2019-01-12T05:56:40.245Z,100883.00
2019-01-12T05:59:10.629Z,100887.00
2019-01-12T06:01:40.899Z,100891.00
2019-01-12T06:04:11.131Z,100890.00
2019-01-12T06:06:41.466Z,100891.00
2019-01-12T06:09:11.763Z,100890.00
2019-01-12T06:11:42.192Z,100883.00
2019-01-12T06:14:12.483Z,100877.00
2019-01-12T06:16:42.785Z,100891.00
2019-01-12T06:19:13.058Z,100885.00
2019-01-12T06:21:43.295Z,100880.00
2019-01-12T06:24:15.841Z,100890.00
2019-01-12T06:26:46.114Z,100882.00
2019-01-12T06:29:16.429Z,100886.00
2019-01-12T06:31:46.651Z,100888.00
2019-01-12T06:34:17.021Z,100886.00
2019-01-12T06:36:47.304Z,100903.00
2019-01-12T06:39:17.499Z,100888.00
2019-01-12T06:41:47.692Z,100893.00
2019-01-12T06:44:18.123Z,100893.00
2019-01-12T06:46:48.649Z,100900.00
2019-01-12T06:49:18.897Z,100886.00
2019-01-12T06:51:49.197Z,100888.00
2019-01-12T06:54:19.363Z,100889.00
2019-01-12T06:56:49.651Z,100889.00
2019-01-12T06:59:19.901Z,100889.00
2019-01-12T07:01:50.193Z,100888.00
2019-01-12T07:04:23.784Z,100891.00
2019-01-12T07:06:53.877Z,100888.00
2019-01-12T07:09:24.013Z,100877.00
2019-01-12T07:11:54.694Z,100885.00
2019-01-12T07:14:29.265Z,100883.00
2019-01-12T07:16:59.415Z,100883.00
2019-01-12T07:19:29.527Z,100884.00
2019-01-12T07:21:59.751Z,100879.00
2019-01-12T07:24:29.891Z,100881.00
2019-01-12T07:27:00.019Z,100880.00
2019-01-12T07:29:30.251Z,100878.00
2019-01-12T07:32:00.799Z,100876.00
2019-01-12T07:34:31.159Z,100873.00
2019-01-12T07:37:01.565Z,100877.00
2019-01-12T07:39:38.402Z,100855.00
2019-01-12T07:42:06.429Z,100863.00
2019-01-12T07:44:36.724Z,100867.00
2019-01-12T07:47:10.539Z,100866.00
2019-01-12T07:49:40.942Z,100854.00
2019-01-12T07:52:11.513Z,100864.00
2019-01-12T07:54:41.895Z,100858.00
2019-01-12T07:57:12.726Z,100852.00
2019-01-12T07:59:43.493Z,100852.00
2019-01-12T08:02:13.974Z,100861.00
2019-01-12T08:04:44.357Z,100843.00
2019-01-12T08:07:15.050Z,100844.00
2019-01-12T08:09:45.664Z,100831.00
2019-01-12T08:12:16.268Z,100831.00
2019-01-12T08:14:48.488Z,100833.00
2019-01-12T08:17:22.057Z,100836.00
2019-01-12T08:19:52.866Z,100831.00
2019-01-12T08:22:23.590Z,100827.00
2019-01-12T08:24:56.020Z,100822.00
2019-01-12T08:27:26.549Z,100820.00
2019-01-12T08:29:56.891Z,100813.00
2019-01-12T08:32:27.562Z,100808.00
2019-01-12T08:34:58.171Z,100808.00
2019-01-12T08:37:28.922Z,100805.00
2019-01-12T08:39:59.416Z,100797.00
2019-01-12T08:42:30.000Z,100795.00
2019-01-12T08:45:00.439Z,100795.00
2019-01-12T08:47:31.328Z,100786.00
2019-01-12T08:50:01.844Z,100796.00
2019-01-12T08:52:32.360Z,100785.00
2019-01-12T08:55:02.882Z,100792.00
2019-01-12T08:57:33.640Z,100786.00
2019-01-12T09:00:05.804Z,100787.00
2019-01-12T09:02:36.290Z,100786.00
2019-01-12T09:05:07.848Z,100801.00
2019-01-12T09:07:38.338Z,100780.00
2019-01-12T09:10:11.706Z,100761.00
2019-01-12T09:12:42.240Z,100769.00
2019-01-12T09:15:12.728Z,100751.00
2019-01-12T09:17:43.356Z,100754.00
2019-01-12T09:20:15.683Z,100756.00
2019-01-12T09:22:46.746Z,100757.00
2019-01-12T09:25:17.326Z,100743.00
2019-01-12T09:27:47.958Z,100747.00
2019-01-12T09:30:22.787Z,100760.00
2019-01-12T09:32:54.338Z,100755.00
2019-01-12T09:35:24.814Z,100757.00
2019-01-12T09:37:55.410Z,100746.00
2019-01-12T09:40:25.796Z,100733.00
2019-01-12T09:42:56.226Z,100741.00
2019-01-12T09:45:26.628Z,100732.00
2019-01-12T09:47:57.313Z,100728.00
2019-01-12T09:50:27.768Z,100721.00
2019-01-12T09:52:58.262Z,100713.00
2019-01-12T09:55:28.689Z,100711.00
2019-01-12T09:57:59.196Z,100701.00
2019-01-12T10:00:29.752Z,100671.00
2019-01-12T10:03:00.259Z,100689.00
2019-01-12T10:05:30.799Z,100693.00
2019-01-12T10:08:01.368Z,100692.00
2019-01-12T10:10:31.823Z,100682.00
2019-01-12T10:13:02.281Z,100679.00
2019-01-12T10:15:32.542Z,100658.00
2019-01-12T10:18:03.056Z,100667.00
2019-01-12T10:20:33.702Z,100641.00
2019-01-12T10:23:04.272Z,100645.00
2019-01-12T10:25:34.780Z,100640.00
2019-01-12T10:28:05.494Z,100617.00
2019-01-12T10:30:35.958Z,100624.00
2019-01-12T10:33:06.526Z,100621.00
2019-01-12T10:35:36.844Z,100607.00
2019-01-12T10:38:09.272Z,100611.00
2019-01-12T10:40:39.723Z,100602.00
2019-01-12T10:43:10.613Z,100599.00
2019-01-12T10:45:42.373Z,100589.00
2019-01-12T10:48:13.049Z,100576.00
2019-01-12T10:50:43.576Z,100575.00
2019-01-12T10:53:14.294Z,100577.00
2019-01-12T10:55:45.001Z,100556.00
2019-01-12T10:58:15.602Z,100567.00
2019-01-12T11:00:48.194Z,100560.00
2019-01-12T11:03:18.807Z,100564.00
2019-01-12T11:05:49.746Z,100551.00
2019-01-12T11:08:20.640Z,100550.00
2019-01-12T11:10:51.537Z,100541.00
2019-01-12T11:13:22.596Z,100538.00
2019-01-12T11:15:53.273Z,100527.00
2019-01-12T11:18:23.770Z,100513.00
2019-01-12T11:20:54.283Z,100507.00
2019-01-12T11:23:25.089Z,100500.00
2019-01-12T11:25:55.665Z,100502.00
2019-01-12T11:28:26.284Z,100485.00
2019-01-12T11:30:56.949Z,100490.00
2019-01-12T11:33:27.468Z,100468.00
2019-01-12T11:35:58.245Z,100463.00
2019-01-12T11:38:28.870Z,100470.00
2019-01-12T11:40:59.381Z,100452.00
2019-01-12T11:43:29.911Z,100466.00
2019-01-12T11:46:00.749Z,100450.00
2019-01-12T11:48:33.118Z,100444.00
2019-01-12T11:51:15.620Z,100436.00
2019-01-12T11:53:46.470Z,100430.00
2019-01-12T11:56:16.808Z,100431.00
2019-01-12T11:58:47.605Z,100420.00
2019-01-12T12:01:18.243Z,100412.00
2019-01-12T12:03:49.196Z,100415.00
2019-01-12T12:06:20.055Z,100404.00
2019-01-12T12:08:50.587Z,100375.00
2019-01-12T12:11:21.133Z,100390.00
2019-01-12T12:13:51.595Z,100384.00
2019-01-12T12:16:21.871Z,100373.00
2019-01-12T12:18:52.572Z,100368.00
2019-01-12T12:21:23.273Z,100359.00
2019-01-12T12:23:54.347Z,100343.00
2019-01-12T12:26:25.159Z,100332.00
2019-01-12T12:28:56.375Z,100324.00
2019-01-12T12:31:26.825Z,100320.00
2019-01-12T12:33:59.162Z,100313.00
2019-01-12T12:36:30.000Z,100296.00
2019-01-12T12:39:01.909Z,100301.00
2019-01-12T12:41:33.487Z,100290.00
2019-01-12T12:44:04.035Z,100280.00
2019-01-12T12:46:34.944Z,100268.00
2019-01-12T12:49:05.887Z,100270.00
2019-01-12T12:51:36.768Z,100266.00
2019-01-12T12:54:07.353Z,100249.00
2019-01-12T12:56:38.147Z,100256.00
2019-01-12T12:59:11.759Z,100242.00
2019-01-12T13:01:42.759Z,100245.00
2019-01-12T13:04:13.341Z,100247.00
2019-01-12T13:06:43.983Z,100238.00
2019-01-12T13:09:14.435Z,100228.00
2019-01-12T13:11:45.391Z,100227.00
2019-01-12T13:14:18.056Z,100223.00
2019-01-12T13:16:48.856Z,100218.00
2019-01-12T13:19:19.415Z,100211.00
2019-01-12T13:21:50.091Z,100218.00
2019-01-12T13:24:20.663Z,100201.00
2019-01-12T13:26:52.958Z,100206.00
2019-01-12T13:29:23.445Z,100196.00
2019-01-12T13:31:54.107Z,100184.00
2019-01-12T13:34:25.840Z,100187.00
2019-01-12T13:36:56.430Z,100185.00
2019-01-12T13:39:32.026Z,100178.00
2019-01-12T13:41:59.032Z,100183.00
2019-01-12T13:44:32.361Z,100178.00
2019-01-12T13:47:03.079Z,100176.00
2019-01-12T13:49:33.617Z,100160.00
2019-01-12T13:52:04.137Z,100158.00
2019-01-12T13:54:35.199Z,100170.00
2019-01-12T13:57:05.919Z,100157.00
2019-01-12T13:59:36.391Z,100153.00
2019-01-12T14:02:06.873Z,100158.00
2019-01-12T14:04:37.426Z,100155.00
2019-01-12T14:07:08.033Z,100156.00
2019-01-12T14:09:38.661Z,100141.00
2019-01-12T14:12:09.247Z,100147.00
2019-01-12T14:14:39.891Z,100138.00
2019-01-12T14:17:10.397Z,100137.00
2019-01-12T14:19:40.921Z,100129.00
2019-01-12T14:22:11.507Z,100129.00
2019-01-12T14:24:42.087Z,100134.00
2019-01-12T14:27:14.546Z,100128.00
2019-01-12T14:29:45.898Z,100126.00
2019-01-12T14:32:18.944Z,100129.00
2019-01-12T14:34:48.636Z,100122.00
2019-01-12T14:37:19.203Z,100112.00
2019-01-12T14:39:49.960Z,100106.00
2019-01-12T14:42:20.958Z,100108.00
2019-01-12T14:44:51.903Z,100113.00
2019-01-12T14:47:24.922Z,100122.00
2019-01-12T14:49:55.430Z,100113.00
2019-01-12T14:52:26.109Z,100113.00
2019-01-12T14:54:56.597Z,100098.00
2019-01-12T14:57:28.151Z,100100.00
2019-01-12T14:59:58.563Z,100103.00
2019-01-12T15:02:30.307Z,100096.00
2019-01-12T15:05:00.713Z,100094.00
2019-01-12T15:07:33.384Z,100086.00
2019-01-12T15:10:06.012Z,100089.00
2019-01-12T15:12:36.292Z,100088.00
2019-01-12T15:15:07.806Z,100081.00
2019-01-12T15:17:38.079Z,100085.00
2019-01-12T15:20:12.057Z,100065.00
2019-01-12T15:22:43.286Z,100074.00
2019-01-12T15:25:14.702Z,100070.00
2019-01-12T15:27:45.161Z,100064.00
2019-01-12T15:30:27.433Z,100063.00
2019-01-12T15:33:10.271Z,100074.00
2019-01-12T15:35:44.422Z,100066.00
2019-01-12T15:38:14.641Z,100079.00
2019-01-12T15:40:44.898Z,100075.00
2019-01-12T15:43:16.977Z,100083.00
2019-01-12T15:45:47.237Z,100084.00
2019-01-12T15:48:17.654Z,100083.00
2019-01-12T15:50:47.982Z,100077.00
2019-01-12T15:53:18.498Z,100076.00
2019-01-12T15:55:48.750Z,100081.00
2019-01-12T15:58:18.965Z,100078.00
2019-01-12T16:00:49.195Z,100076.00
2019-01-12T16:03:19.430Z,100057.00
2019-01-12T16:05:49.810Z,100051.00
2019-01-12T16:08:20.285Z,100051.00
2019-01-12T16:10:50.636Z,100043.00
2019-01-12T16:13:20.930Z,100046.00
2019-01-12T16:15:51.223Z,100049.00
2019-01-12T16:18:22.084Z,100055.00
2019-01-12T16:20:52.366Z,100044.00
2019-01-12T16:23:22.788Z,100037.00
2019-01-12T16:25:53.145Z,100038.00
2019-01-12T16:28:23.632Z,100044.00
2019-01-12T16:30:53.975Z,100039.00
2019-01-12T16:33:24.329Z,100040.00
2019-01-12T16:35:54.644Z,100039.00
2019-01-12T16:38:25.002Z,100034.00
2019-01-12T16:40:55.229Z,100030.00
2019-01-12T16:43:25.556Z,100043.00
2019-01-12T16:45:55.800Z,100038.00
2019-01-12T16:48:26.111Z,100020.00
2019-01-12T16:50:56.444Z,100012.00
2019-01-12T16:53:26.750Z,100014.00
2019-01-12T16:55:57.043Z,100010.00
2019-01-12T16:58:30.615Z,100019.00
2019-01-12T17:00:59.347Z,100020.00
2019-01-12T17:03:29.730Z,100014.00
2019-01-12T17:06:00.040Z,100019.00
2019-01-12T17:08:30.388Z,100026.00
2019-01-12T17:11:00.736Z,100030.00
2019-01-12T17:13:31.116Z,100038.00
2019-01-12T17:16:01.390Z,100038.00
2019-01-12T17:18:31.622Z,100050.00
2019-01-12T17:21:01.864Z,100030.00
2019-01-12T17:23:32.210Z,100041.00
2019-01-12T17:26:02.436Z,100045.00
2019-01-12T17:28:37.266Z,100042.00
2019-01-12T17:31:04.608Z,100034.00
2019-01-12T17:33:35.066Z,100048.00
2019-01-12T17:36:05.343Z,100034.00
2019-01-12T17:38:35.659Z,100042.00
2019-01-12T17:41:05.908Z,100029.00
2019-01-12T17:43:36.646Z,100019.00
2019-01-12T17:46:07.544Z,100013.00
2019-01-12T17:48:37.884Z,100021.00
2019-01-12T17:51:08.210Z,100021.00
2019-01-12T17:53:38.525Z,100011.00
2019-01-12T17:56:08.900Z,100013.00
2019-01-12T17:58:44.396Z,100021.00
2019-01-12T18:01:11.348Z,100021.00
2019-01-12T18:03:41.655Z,100012.00
2019-01-12T18:06:11.831Z,100014.00
2019-01-12T18:08:42.147Z,100016.00
2019-01-12T18:11:12.467Z,100002.00
2019-01-12T18:13:42.793Z,100003.00
2019-01-12T18:16:13.023Z,100007.00
2019-01-12T18:18:43.630Z,100007.00
2019-01-12T18:21:13.991Z,100012.00
2019-01-12T18:23:44.269Z,100014.00
2019-01-12T18:26:14.616Z,100011.00
2019-01-12T18:28:51.368Z,100007.00
2019-01-12T18:31:16.898Z,100008.00
2019-01-12T18:33:47.272Z,100006.00
2019-01-12T18:36:17.624Z,100006.00
2019-01-12T18:38:47.936Z,100003.00
2019-01-12T18:41:18.237Z,99991.00
2019-01-12T18:43:48.540Z,99996.00
2019-01-12T18:46:18.843Z,99998.00
2019-01-12T18:48:49.020Z,99992.00
2019-01-12T18:51:19.388Z,99991.00
2019-01-12T18:53:49.700Z,99998.00
2019-01-12T18:56:20.040Z,99998.00
2019-01-12T18:58:50.382Z,99998.00
2019-01-12T19:01:20.783Z,99989.00
2019-01-12T19:03:51.437Z,99987.00
2019-01-12T19:06:21.663Z,99984.00
2019-01-12T19:08:52.001Z,99979.00
2019-01-12T19:11:22.513Z,99981.00
2019-01-12T19:13:52.868Z,99975.00
2019-01-12T19:16:23.211Z,99972.00
2019-01-12T19:18:53.503Z,99976.00
2019-01-12T19:21:23.955Z,99970.00
2019-01-12T19:23:54.259Z,99977.00
2019-01-12T19:26:24.703Z,99982.00
2019-01-12T19:28:55.094Z,99978.00
2019-01-12T19:31:25.401Z,99964.00
2019-01-12T19:33:55.683Z,99976.00
2019-01-12T19:36:26.043Z,99969.00
2019-01-12T19:38:56.346Z,99976.00
2019-01-12T19:41:26.770Z,99982.00
2019-01-12T19:43:59.991Z,99978.00
2019-01-12T19:46:30.932Z,99983.00
2019-01-12T19:49:01.205Z,99973.00
2019-01-12T19:51:31.494Z,99963.00
2019-01-12T19:54:01.730Z,99947.00
2019-01-12T19:56:31.914Z,99952.00
2019-01-12T19:59:02.346Z,99959.00
2019-01-12T20:01:32.646Z,99968.00
2019-01-12T20:04:02.995Z,99964.00
2019-01-12T20:06:33.321Z,99956.00
2019-01-12T20:09:06.675Z,99943.00
2019-01-12T20:11:36.947Z,99956.00
2019-01-12T20:14:07.259Z,99940.00
2019-01-12T20:16:37.559Z,99953.00
2019-01-12T20:19:07.865Z,99948.00
2019-01-12T20:21:38.152Z,99937.00
2019-01-12T20:24:11.017Z,99940.00
2019-01-12T20:26:42.988Z,99945.00
2019-01-12T20:29:13.408Z,99941.00
2019-01-12T20:32:14.495Z,99947.00
2019-01-12T20:34:48.669Z,99937.00
2019-01-12T20:38:12.391Z,99931.00
2019-01-12T20:41:12.521Z,99941.00
2019-01-12T20:44:39.145Z,99935.00
2019-01-12T20:47:50.939Z,99938.00
2019-01-12T20:50:33.708Z,99925.00
2019-01-12T20:53:39.242Z,99938.00
2019-01-12T20:56:39.935Z,99913.00
2019-01-12T20:59:35.241Z,99914.00
2019-01-12T21:02:58.203Z,99915.00
2019-01-12T21:06:15.518Z,99914.00
2019-01-12T21:09:05.142Z,99907.00
2019-01-12T21:12:29.985Z,99916.00
2019-01-12T21:15:12.586Z,99910.00
2019-01-12T21:17:42.861Z,99916.00
2019-01-12T21:20:13.136Z,99905.00
2019-01-12T21:22:43.459Z,99909.00
2019-01-12T21:25:14.646Z,99915.00
2019-01-12T21:27:45.261Z,99918.00
2019-01-12T21:30:16.959Z,99910.00
2019-01-12T21:32:47.267Z,99906.00
2019-01-12T21:35:17.605Z,99916.00
2019-01-12T21:37:47.927Z,99902.00
2019-01-12T21:40:18.185Z,99900.00
2019-01-12T21:42:48.434Z,99901.00
2019-01-12T21:45:18.898Z,99901.00
2019-01-12T21:47:49.437Z,99898.00
2019-01-12T21:50:19.861Z,99902.00
2019-01-12T21:52:50.146Z,99902.00
2019-01-12T21:55:20.407Z,99896.00
2019-01-12T21:57:50.735Z,99897.00
2019-01-12T22:00:21.076Z,99906.00
2019-01-12T22:02:51.342Z,99901.00
2019-01-12T22:05:21.600Z,99897.00
2019-01-12T22:07:51.955Z,99887.00
2019-01-12T22:10:22.722Z,99892.00
2019-01-12T22:12:53.224Z,99889.00
2019-01-12T22:15:23.877Z,99882.00
2019-01-12T22:17:54.123Z,99889.00
2019-01-12T22:20:24.400Z,99881.00
2019-01-12T22:22:54.745Z,99883.00
2019-01-12T22:25:25.184Z,99890.00
2019-01-12T22:27:55.459Z,99883.00
2019-01-12T22:30:25.813Z,99889.00
2019-01-12T22:32:56.270Z,99883.00
2019-01-12T22:35:26.525Z,99879.00
2019-01-12T22:37:56.795Z,99874.00
2019-01-12T22:40:27.223Z,99894.00
2019-01-12T22:42:57.627Z,99864.00
2019-01-12T22:45:27.936Z,99877.00
2019-01-12T22:47:58.469Z,99877.00
2019-01-12T22:50:28.800Z,99879.00
2019-01-12T22:52:59.111Z,99877.00
2019-01-12T22:55:29.374Z,99877.00
2019-01-12T22:57:59.610Z,99863.00
2019-01-12T23:01:02.840Z,99872.00
2019-01-12T23:03:33.462Z,99865.00
2019-01-12T23:06:04.234Z,99872.00
2019-01-12T23:08:34.745Z,99874.00
2019-01-12T23:11:05.086Z,99864.00
2019-01-12T23:13:35.346Z,99868.00
2019-01-12T23:16:07.181Z,99874.00
2019-01-12T23:18:37.698Z,99863.00
2019-01-12T23:21:08.364Z,99872.00
2019-01-12T23:23:38.772Z,99861.00
2019-01-12T23:26:09.090Z,99869.00
2019-01-12T23:28:39.363Z,99867.00
2019-01-12T23:31:09.724Z,99860.00
2019-01-12T23:33:40.064Z,99872.00
2019-01-12T23:36:10.457Z,99880.00
2019-01-12T23:38:40.724Z,99867.00
2019-01-12T23:41:10.936Z,99867.00
2019-01-12T23:43:41.278Z,99866.00
2019-01-12T23:46:11.603Z,99865.00
2019-01-12T23:48:42.180Z,99860.00
2019-01-12T23:51:12.475Z,99862.00
2019-01-12T23:53:42.750Z,99862.00
2019-01-12T23:56:13.039Z,99863.00
2019-01-12T23:58:43.325Z,99863.00
